Hopedale, MA (01747)

6:18 PM EDT on April 25, 2015 (GMT -0400)
Dutcher Street | | Change Station
CLOSE
Current Station
Personal Weather Station
Location: Hopedale, MA
Elevation: 272 ft
Nearby Weather Stations

Elev 272 ft 42.14 °N, 71.55 °W | Updated 4 seconds ago

Partly Cloudy
Partly Cloudy
52.7 °F
Feels Like 52.7 °F
N
0.0
Wind Variable Wind from WNW
Gusts 8.0 mph

Today
High -- | Low -- °F
--% Chance of Precip.
Yesterday
High -- | Low -- °F
Precip. -- in
5:50 AM 7:38 PM
Waxing Crescent, 49% visible
Pressure 29.67 in
Visibility 10.0 miles
Clouds Clear
Dew Point 30 °F
Humidity 41%
Rainfall 0.00 in
Snow Depth Not available.
UV 5 out of 12
Pollen 10.60 out of 12
Air Quality Not available.
Flu Activity Widespread
METAR KSFZ 251955Z 31009G17KT 260V330 10SM CLR 13/M04 A2967 RMK AO1

More Conditions Fewer Conditions

Pressure 29.67 in
Visibility 10.0 miles
Clouds Clear
Dew Point 30 °F
Humidity 41%
Rainfall 0.00 in
Snow Depth Not available.
UV 5 out of 12
Pollen 10.60 out of 12
Air Quality Not available.
Flu Activity Widespread
METAR KSFZ 251955Z 31009G17KT 260V330 10SM CLR 13/M04 A2967 RMK AO1

More Conditions Fewer Conditions

10-Day Weather Forecast

Almanac

Astronomy

Apr. 25, 2015 Rise Set
Actual Time
Civil Twilight
Nautical Twilight
Astronomical Twilight
Moon
Length of Visible Light
Length of Day
Tomorrow will be .
, % of the Moon is Illuminated

Today's Extremes

State Highs State Lows

Community

WunderPhotos

Upload Photos

1,816,827 photos uploaded!

WunderBlogs® & News

Nearby

Air Quality

  Air Quality AQ Index Pollutant
Not available.

Snow Depth

Station Depth Elevation

Earthquake Activity

City Distance Mag. Time & Date
Minimum magnitude displayed is 2.5.

Coastal Water Temperatures

Place Temperature

Stations

Nearby Weather Stations

Station Location Temp. Windchill Dew Point Humidity Wind Precip. Elev Updated Type